Time;durP1;ratioP1;P1;durP2;ratioP2;P2;SDS_P1;SDS_P2;PMS_P1;PMS_P2;Temp;Humidity;BMP_temperature;BMP_pressure;BME280_temperature;BME280_humidity;BME280_pressure;Samples;Min_cycle;Max_cycle;Signal;HPM_P1;HPM_P2
2022/06/22 00:00:32;;;;;;;;;;;;;;;12.75;100.00;101300.66;5299683;28;19912;-81
2022/06/22 00:03:04;;;;;;;;;;;;;;;12.75;100.00;101304.19;5299849;28;19930;-81
2022/06/22 00:05:38;;;;;;;;;;;;;;;12.75;100.00;101296.06;5298145;28;20395;-81
2022/06/22 00:08:12;;;;;;;;;;;;;;;12.74;100.00;101293.59;5299787;28;19908;-81
2022/06/22 00:10:50;;;;;;;;;;;;;;;12.75;100.00;101277.09;5299269;27;19908;-80
2022/06/22 00:13:23;;;;;;;;;;;;;;;12.77;100.00;101269.50;5299684;27;19911;-80
2022/06/22 00:16:01;;;;;;;;;;;;;;;12.78;100.00;101265.72;5296829;28;19999;-80
2022/06/22 00:18:34;;;;;;;;;;;;;;;12.80;100.00;101274.41;5303877;27;19957;-79
2022/06/22 00:21:15;;;;;;;;;;;;;;;12.78;100.00;101270.34;5305711;27;19908;-80
2022/06/22 00:23:47;;;;;;;;;;;;;;;12.80;100.00;101263.56;5298160;28;19915;-79
2022/06/22 00:26:26;;;;;;;;;;;;;;;12.84;100.00;101250.31;5298769;28;19914;-79
2022/06/22 00:28:57;;;;;;;;;;;;;;;12.84;100.00;101253.03;5297867;28;19939;-79
2022/06/22 00:31:30;;;;;;;;;;;;;;;12.85;100.00;101260.09;5298612;28;20316;-81
2022/06/22 00:34:03;;;;;;;;;;;;;;;12.85;100.00;101258.19;5300662;27;19914;-80
2022/06/22 00:36:39;;;;;;;;;;;;;;;12.84;100.00;101253.03;5319462;27;19911;-80
2022/06/22 00:39:22;;;;;;;;;;;;;;;12.78;100.00;101264.91;5299882;27;19907;-80
2022/06/22 00:42:21;;;;;;;;;;;;;;;12.74;100.00;101271.94;5301838;27;19923;-80
2022/06/22 00:44:56;;;;;;;;;;;;;;;12.74;100.00;101280.06;5319695;27;19938;-81
2022/06/22 00:47:29;;;;;;;;;;;;;;;12.70;100.00;101290.63;5301902;27;19907;-80
2022/06/22 00:50:05;;;;;;;;;;;;;;;12.64;100.00;101288.94;5302345;27;20344;-81
2022/06/22 00:52:37;;;;;;;;;;;;;;;12.59;100.00;101280.78;5317654;27;20278;-79
2022/06/22 00:55:21;;;;;;;;;;;;;;;12.59;100.00;101271.81;5318646;27;19912;-79
2022/06/22 00:57:55;;;;;;;;;;;;;;;12.61;100.00;101248.81;5297578;27;20006;-80
2022/06/22 01:00:28;;;;;;;;;;;;;;;12.62;100.00;101244.22;5303511;27;20360;-80
2022/06/22 01:03:04;;;;;;;;;;;;;;;12.67;100.00;101233.41;5320189;27;20420;-81
2022/06/22 01:05:46;;;;;;;;;;;;;;;12.67;100.00;101231.53;5284362;28;19908;-80
2022/06/22 01:08:19;;;;;;;;;;;;;;;12.69;100.00;101229.38;5297893;28;20005;-80
2022/06/22 01:11:02;;;;;;;;;;;;;;;12.64;100.00;101234.75;5295975;28;19908;-79
2022/06/22 01:13:40;;;;;;;;;;;;;;;12.60;100.00;101243.66;5277980;28;20381;-81
2022/06/22 01:16:21;;;;;;;;;;;;;;;12.57;100.00;101242.28;5293834;28;19911;-78
2022/06/22 01:18:58;;;;;;;;;;;;;;;12.55;100.00;101244.44;5295556;28;19953;-79
2022/06/22 01:21:33;;;;;;;;;;;;;;;12.51;100.00;101260.38;5295839;28;19946;-80
2022/06/22 01:24:11;;;;;;;;;;;;;;;12.55;100.00;101247.13;5296489;28;19941;-78
2022/06/22 01:26:41;;;;;;;;;;;;;;;12.59;100.00;101250.16;5276003;28;19912;-81
2022/06/22 01:29:13;;;;;;;;;;;;;;;12.58;100.00;101243.91;5296985;28;19972;-81
2022/06/22 01:31:51;;;;;;;;;;;;;;;12.56;100.00;101256.09;5314480;27;19974;-80
2022/06/22 01:34:24;;;;;;;;;;;;;;;12.53;100.00;101257.41;5315019;27;19907;-79
2022/06/22 01:36:59;;;;;;;;;;;;;;;12.52;100.00;101255.78;5304630;27;19915;-79
2022/06/22 01:39:29;;;;;;;;;;;;;;;12.47;100.00;101266.56;5295974;28;19922;-80
2022/06/22 01:42:05;;;;;;;;;;;;;;;12.47;100.00;101269.28;5280747;28;19907;-79
2022/06/22 01:44:41;;;;;;;;;;;;;;;12.47;100.00;101258.44;5283141;28;19912;-80
2022/06/22 01:47:15;;;;;;;;;;;;;;;12.45;100.00;101266.00;5300071;28;19907;-80
2022/06/22 01:50:04;;;;;;;;;;;;;;;12.37;100.00;101269.22;5298144;28;19912;-80
2022/06/22 01:52:50;;;;;;;;;;;;;;;12.31;100.00;101265.63;5288733;28;19907;-81
2022/06/22 01:55:30;;;;;;;;;;;;;;;12.30;100.00;101264.00;5319353;28;20363;-81
2022/06/22 01:58:19;;;;;;;;;;;;;;;12.30;100.00;101263.19;5315915;28;19911;-80
2022/06/22 02:00:54;;;;;;;;;;;;;;;12.29;100.00;101256.13;5305924;28;19908;-80
2022/06/22 02:03:28;;;;;;;;;;;;;;;12.25;100.00;101255.00;5294164;28;19908;-79
2022/06/22 02:07:44;;;;;;;;;;;;;;;12.16;100.00;101258.19;5298968;28;19979;-79
2022/06/22 02:09:01;;;;;;;;;;;;;;;12.11;100.00;101260.03;5316003;28;19907;-79
2022/06/22 02:11:35;;;;;;;;;;;;;;;12.07;100.00;101267.03;5316001;28;20383;-79
2022/06/22 02:14:10;;;;;;;;;;;;;;;12.09;100.00;101260.31;5312883;28;19919;-80
2022/06/22 02:16:55;;;;;;;;;;;;;;;12.13;100.00;101252.47;5296927;28;19912;-80
2022/06/22 02:19:29;;;;;;;;;;;;;;;12.15;100.00;101250.31;5295456;28;19960;-80
2022/06/22 02:22:01;;;;;;;;;;;;;;;12.13;100.00;101252.47;5296611;28;20003;-81
2022/06/22 02:24:34;;;;;;;;;;;;;;;12.12;100.00;101256.28;5305468;27;19907;-81
2022/06/22 02:27:13;;;;;;;;;;;;;;;12.13;100.00;101247.84;5320868;27;20321;-80
2022/06/22 02:29:48;;;;;;;;;;;;;;;12.19;100.00;101254.16;5320327;27;19927;-80
2022/06/22 02:32:28;;;;;;;;;;;;;;;12.23;100.00;101246.31;5294893;28;19996;-80
2022/06/22 02:34:59;;;;;;;;;;;;;;;12.23;100.00;101243.63;5298566;28;19912;-79
2022/06/22 02:37:32;;;;;;;;;;;;;;;12.22;100.00;101244.69;5280327;28;19914;-80
2022/06/22 02:40:04;;;;;;;;;;;;;;;12.16;100.00;101241.94;5315127;27;19907;-80
2022/06/22 02:45:24;;;;;;;;;;;;;;;12.16;100.00;101222.97;5319127;27;19915;-79
2022/06/22 02:48:13;;;;;;;;;;;;;;;12.14;100.00;101227.03;5282790;28;19911;-82
2022/06/22 02:50:55;;;;;;;;;;;;;;;12.15;100.00;101224.06;5300079;28;20376;-81
2022/06/22 02:53:30;;;;;;;;;;;;;;;12.11;100.00;101220.25;5298869;28;19907;-79
2022/06/22 02:56:02;;;;;;;;;;;;;;;12.14;100.00;101222.41;5299348;28;20273;-80
2022/06/22 02:58:34;;;;;;;;;;;;;;;12.14;100.00;101214.31;5290646;22;20345;-83
2022/06/22 03:01:07;;;;;;;;;;;;;;;12.15;100.00;101202.41;5252567;28;19913;-83
2022/06/22 03:03:38;;;;;;;;;;;;;;;12.15;100.00;101201.59;5252789;28;19915;-83
2022/06/22 03:06:10;;;;;;;;;;;;;;;12.11;100.00;101206.72;5252403;28;19908;-83
2022/06/22 03:08:41;;;;;;;;;;;;;;;12.08;100.00;101198.28;5257745;28;19916;-83
2022/06/22 03:11:12;;;;;;;;;;;;;;;12.09;100.00;101198.03;5252648;28;19909;-83
2022/06/22 03:14:03;;;;;;;;;;;;;;;12.10;100.00;101199.69;5234234;28;19913;-84
2022/06/22 03:16:37;;;;;;;;;;;;;;;12.10;100.00;101196.16;5253395;28;19912;-83
2022/06/22 03:19:11;;;;;;;;;;;;;;;12.11;100.00;101195.91;5252592;28;19915;-83
2022/06/22 03:21:42;;;;;;;;;;;;;;;12.14;100.00;101202.66;5234246;28;19916;-83
2022/06/22 03:24:30;;;;;;;;;;;;;;;12.15;100.00;101207.81;5234553;28;19915;-83
2022/06/22 03:29:40;;;;;;;;;;;;;;;12.14;100.00;101211.59;5253363;23;20419;-60
2022/06/22 03:32:13;;;;;;;;;;;;;;;12.13;100.00;101219.97;5282586;28;19924;-62
2022/06/22 03:34:47;;;;;;;;;;;;;;;12.11;100.00;101212.13;5269963;28;19908;-61
2022/06/22 03:37:27;;;;;;;;;;;;;;;11.15;100.00;101068.63;5265114;28;19908;-61
2022/06/22 03:40:00;;;;;;;;;;;;;;;12.06;100.00;101220.22;5264677;28;19908;-60
2022/06/22 03:42:35;;;;;;;;;;;;;;;12.07;100.00;101237.25;5247839;28;19908;-60
2022/06/22 03:45:12;;;;;;;;;;;;;;;12.05;100.00;101232.09;5248583;28;19912;-62
2022/06/22 03:47:53;;;;;;;;;;;;;;;12.08;100.00;101238.91;5247685;28;20300;-60
2022/06/22 03:50:32;;;;;;;;;;;;;;;12.09;100.00;101244.06;5263992;28;19982;-61
2022/06/22 03:53:06;;;;;;;;;;;;;;;12.09;100.00;101233.22;5248841;28;19909;-60
2022/06/22 03:58:45;;;;;;;;;;;;;;;12.18;100.00;101220.03;5248370;28;19986;-61
2022/06/22 04:01:17;;;;;;;;;;;;;;;12.25;100.00;101220.63;5246783;28;20004;-60
2022/06/22 04:03:48;;;;;;;;;;;;;;;12.30;100.00;101215.25;5247098;28;19958;-61
2022/06/22 04:06:24;;;;;;;;;;;;;;;12.35;100.00;101219.91;5249402;28;20003;-62
2022/06/22 04:08:55;;;;;;;;;;;;;;;12.40;100.00;101214.53;5245874;28;19987;-60
2022/06/22 04:11:34;;;;;;;;;;;;;;;12.45;100.00;101209.13;5263560;28;20007;-61
2022/06/22 04:14:17;;;;;;;;;;;;;;;12.48;100.00;101206.72;5262826;28;20007;-61
2022/06/22 04:17:08;;;;;;;;;;;;;;;12.55;100.00;101211.09;5246460;28;19913;-61
2022/06/22 04:19:47;;;;;;;;;;;;;;;12.58;100.00;101214.13;5247545;28;20283;-60
2022/06/22 04:22:20;;;;;;;;;;;;;;;12.62;100.00;101211.69;5246502;28;19909;-62
2022/06/22 04:25:13;;;;;;;;;;;;;;;12.67;100.00;101215.28;5262890;28;19908;-59
2022/06/22 04:27:45;;;;;;;;;;;;;;;12.84;100.00;101206.97;5246493;28;20333;-62
2022/06/22 04:30:37;;;;;;;;;;;;;;;13.08;100.00;101210.06;5262310;28;20058;-61
2022/06/22 04:33:26;;;;;;;;;;;;;;;13.27;100.00;101214.00;5243208;28;19970;-61
2022/06/22 04:36:00;;;;;;;;;;;;;;;13.54;100.00;101202.97;5241267;28;19999;-61
2022/06/22 04:38:30;;;;;;;;;;;;;;;13.74;100.00;101208.41;5240643;28;19909;-61
2022/06/22 04:41:00;;;;;;;;;;;;;;;13.94;100.00;101210.34;5239944;28;19982;-62
2022/06/22 04:43:31;;;;;;;;;;;;;;;13.35;100.00;101080.53;5227454;28;19996;-65
2022/06/22 04:46:04;;;;;;;;;;;;;;;14.44;100.00;101216.91;5204276;28;19909;-61
2022/06/22 04:48:36;;;;;;;;;;;;;;;14.72;100.00;101216.34;5203636;28;19916;-60
2022/06/22 04:51:11;;;;;;;;;;;;;;;14.96;100.00;101216.56;5203898;28;19967;-61
2022/06/22 04:53:52;;;;;;;;;;;;;;;15.16;100.00;101230.09;5204029;28;19975;-61
2022/06/22 04:56:29;;;;;;;;;;;;;;;15.28;100.00;101234.41;5203989;28;19924;-62
2022/06/22 04:59:00;;;;;;;;;;;;;;;15.33;100.00;101227.00;5204467;28;19912;-62
2022/06/22 05:01:35;;;;;;;;;;;;;;;15.34;100.00;101228.66;5203839;28;19916;-61
2022/06/22 05:04:07;;;;;;;;;;;;;;;15.37;100.00;101228.09;5203434;28;19913;-60
2022/06/22 05:06:45;;;;;;;;;;;;;;;15.42;100.00;101219.91;5187159;28;19931;-60
2022/06/22 05:09:20;;;;;;;;;;;;;;;15.46;100.00;101212.81;5162150;28;20333;-60
2022/06/22 05:11:50;;;;;;;;;;;;;;;15.48;100.00;101217.97;5181315;28;19909;-60
2022/06/22 05:14:23;;;;;;;;;;;;;;;15.50;100.00;101232.94;5177761;28;19963;-60
2022/06/22 05:16:57;;;;;;;;;;;;;;;15.48;100.00;101235.13;5182703;28;19920;-60
2022/06/22 05:19:39;;;;;;;;;;;;;;;15.46;100.00;101240.03;5162969;28;19917;-61
2022/06/22 05:22:14;;;;;;;;;;;;;;;15.50;100.00;101241.09;5162456;28;19960;-61
2022/06/22 05:27:56;;;;;;;;;;;;;;;15.40;100.00;101248.50;5180648;28;20012;-60
2022/06/22 05:30:30;;;;;;;;;;;;;;;15.45;100.00;101243.84;5188564;28;19913;-61
2022/06/22 05:33:04;;;;;;;;;;;;;;;15.52;100.00;101233.47;5169355;28;19921;-60
2022/06/22 05:35:37;;;;;;;;;;;;;;;15.57;100.00;101240.84;5179434;28;19922;-62
2022/06/22 05:38:09;;;;;;;;;;;;;;;15.67;100.00;101245.41;5168257;28;19910;-61
2022/06/22 05:40:40;;;;;;;;;;;;;;;15.73;100.00;101247.00;5161820;28;19913;-61
2022/06/22 05:43:10;;;;;;;;;;;;;;;15.75;100.00;101233.94;5161670;28;19920;-62
2022/06/22 05:45:46;;;;;;;;;;;;;;;15.75;100.00;101226.56;5158120;28;19971;-62
2022/06/22 05:51:30;;;;;;;;;;;;;;;15.88;100.00;101246.13;5163620;28;19964;-66
2022/06/22 05:54:04;;;;;;;;;;;;;;;15.86;100.00;101241.75;5178021;28;19949;-62
2022/06/22 05:56:46;;;;;;;;;;;;;;;15.90;100.00;101246.63;5162227;28;19935;-63
2022/06/22 05:59:26;;;;;;;;;;;;;;;16.04;100.00;101251.16;5163179;28;19936;-61
2022/06/22 06:01:56;;;;;;;;;;;;;;;16.21;100.00;101257.03;5182571;28;19921;-61
2022/06/22 06:04:47;;;;;;;;;;;;;;;16.30;100.00;101268.16;5182810;28;19910;-59
2022/06/22 06:07:23;;;;;;;;;;;;;;;16.38;100.00;101273.00;5167149;28;20275;-62
2022/06/22 06:09:53;;;;;;;;;;;;;;;16.47;100.00;101278.63;5166329;28;20278;-59
2022/06/22 06:12:43;;;;;;;;;;;;;;;16.63;100.00;101274.69;5164953;28;20054;-62
2022/06/22 06:15:14;;;;;;;;;;;;;;;16.87;100.00;101261.13;5176826;28;19913;-59
2022/06/22 06:17:46;;;;;;;;;;;;;;;17.16;100.00;101258.38;5201647;28;19936;-60
2022/06/22 06:20:28;;;;;;;;;;;;;;;17.35;100.00;101263.88;5206247;28;19913;-60
2022/06/22 06:23:01;;;;;;;;;;;;;;;17.55;100.00;101269.91;5206563;28;19925;-57
2022/06/22 06:28:46;;;;;;;;;;;;;;;17.78;100.00;101259.25;5208262;28;19983;-58
2022/06/22 06:31:22;;;;;;;;;;;;;;;17.94;100.00;101248.91;5222919;28;19920;-60
2022/06/22 06:33:53;;;;;;;;;;;;;;;18.13;100.00;101247.00;5223262;28;19909;-58
2022/06/22 06:36:28;;;;;;;;;;;;;;;18.21;100.00;101257.25;5222020;28;20292;-60
2022/06/22 06:39:19;;;;;;;;;;;;;;;18.17;100.00;101256.25;5205963;28;20057;-58
2022/06/22 06:42:05;;;;;;;;;;;;;;;18.10;100.00;101258.53;5206306;28;19970;-60
2022/06/22 06:44:37;;;;;;;;;;;;;;;18.13;100.00;101260.66;5205631;28;19916;-60
2022/06/22 06:47:13;;;;;;;;;;;;;;;18.29;100.00;101261.22;5207415;28;19909;-60
2022/06/22 06:49:43;;;;;;;;;;;;;;;18.37;100.00;101261.38;5206369;28;19909;-58
2022/06/22 06:52:27;;;;;;;;;;;;;;;18.51;100.00;101254.00;5207586;28;19955;-61
2022/06/22 06:54:58;;;;;;;;;;;;;;;18.62;100.00;101243.75;5204218;28;20019;-57
2022/06/22 06:57:29;;;;;;;;;;;;;;;18.49;100.00;101245.28;5221948;28;20433;-59
2022/06/22 07:00:01;;;;;;;;;;;;;;;18.54;100.00;101247.13;5205562;28;19956;-57
2022/06/22 07:02:36;;;;;;;;;;;;;;;18.68;100.00;101239.00;5205526;28;19909;-58
2022/06/22 07:05:11;;;;;;;;;;;;;;;18.94;100.00;101233.88;5221766;28;19919;-61
2022/06/22 07:07:41;;;;;;;;;;;;;;;19.15;100.00;101227.69;5206741;28;20003;-59
2022/06/22 07:10:14;;;;;;;;;;;;;;;19.25;100.00;101226.69;5221884;28;20409;-61
2022/06/22 07:12:48;;;;;;;;;;;;;;;19.32;100.00;101226.28;5204465;28;20078;-58
2022/06/22 07:15:20;;;;;;;;;;;;;;;19.50;100.00;101242.59;5221396;28;19913;-59
2022/06/22 07:17:53;;;;;;;;;;;;;;;19.65;100.00;101237.91;5204753;28;19909;-61
2022/06/22 07:20:26;;;;;;;;;;;;;;;19.83;100.00;101235.03;5221724;28;20381;-59
2022/06/22 07:23:01;;;;;;;;;;;;;;;20.13;100.00;101216.25;5204632;28;19999;-57
2022/06/22 07:25:35;;;;;;;;;;;;;;;20.35;100.00;101213.50;5220634;28;19909;-57
2022/06/22 07:28:31;;;;;;;;;;;;;;;20.62;100.00;101214.47;5205789;28;19938;-57
2022/06/22 07:31:34;;;;;;;;;;;;;;;20.52;100.00;101210.88;5201630;28;19916;-58
2022/06/22 07:34:07;;;;;;;;;;;;;;;20.47;100.00;101215.69;5171725;28;19909;-60
2022/06/22 07:36:41;;;;;;;;;;;;;;;20.22;100.00;101214.34;5203926;28;19920;-59
2022/06/22 07:39:11;;;;;;;;;;;;;;;20.13;100.00;101206.09;5205513;28;20375;-57
2022/06/22 07:41:41;;;;;;;;;;;;;;;20.10;100.00;101208.63;5221705;28;19909;-57
2022/06/22 07:44:14;;;;;;;;;;;;;;;20.32;100.00;101202.31;5205660;28;19995;-57
2022/06/22 07:47:05;;;;;;;;;;;;;;;20.54;100.00;101210.56;5221140;28;19920;-57
2022/06/22 07:49:36;;;;;;;;;;;;;;;20.86;100.00;101202.00;5221093;28;19963;-58
2022/06/22 07:52:11;;;;;;;;;;;;;;;21.25;100.00;101208.63;5220870;28;19913;-57
2022/06/22 07:54:44;;;;;;;;;;;;;;;21.68;100.00;101218.88;5203813;28;19909;-59
2022/06/22 07:57:17;;;;;;;;;;;;;;;21.98;100.00;101209.66;5205351;28;19909;-57
2022/06/22 07:59:56;;;;;;;;;;;;;;;22.30;100.00;101215.81;5220913;28;19958;-60
2022/06/22 08:02:30;;;;;;;;;;;;;;;22.51;100.00;101205.75;5204652;28;19920;-58
2022/06/22 08:05:05;;;;;;;;;;;;;;;22.48;100.00;101218.22;5221007;28;19954;-58
2022/06/22 08:07:45;;;;;;;;;;;;;;;22.43;100.00;101221.16;5204286;28;19964;-59
2022/06/22 08:10:18;;;;;;;;;;;;;;;22.43;100.00;101215.66;5203808;28;20316;-61
2022/06/22 08:13:07;;;;;;;;;;;;;;;22.24;100.00;101201.41;5220598;28;19996;-60
2022/06/22 08:15:44;;;;;;;;;;;;;;;22.45;98.50;101218.88;5219832;28;20293;-59
2022/06/22 08:18:14;;;;;;;;;;;;;;;22.51;95.30;101225.84;5219780;28;19913;-60
2022/06/22 08:20:46;;;;;;;;;;;;;;;22.53;92.95;101228.22;5203366;28;19967;-60
2022/06/22 08:23:23;;;;;;;;;;;;;;;22.56;92.57;101224.81;5202759;28;19920;-57
2022/06/22 08:25:54;;;;;;;;;;;;;;;22.76;92.07;101221.38;5220001;28;19956;-59
2022/06/22 08:28:25;;;;;;;;;;;;;;;22.54;87.14;101222.41;5203507;28;19913;-58
2022/06/22 08:30:56;;;;;;;;;;;;;;;22.33;89.42;101231.69;5203831;28;19912;-60
2022/06/22 08:33:35;;;;;;;;;;;;;;;22.32;91.05;101230.88;5220495;28;19958;-60
2022/06/22 08:36:12;;;;;;;;;;;;;;;22.46;89.05;101226.00;5220428;28;19974;-63
2022/06/22 08:38:48;;;;;;;;;;;;;;;22.67;90.62;101223.34;5203704;28;20008;-58
2022/06/22 08:41:32;;;;;;;;;;;;;;;22.87;88.76;101227.34;5203446;28;19916;-58
2022/06/22 08:44:22;;;;;;;;;;;;;;;23.01;85.56;101225.19;5219737;28;20285;-60
2022/06/22 08:47:04;;;;;;;;;;;;;;;22.87;85.26;101221.84;5219810;28;19909;-60
2022/06/22 08:49:37;;;;;;;;;;;;;;;22.80;84.53;101224.31;5202865;28;19956;-60
2022/06/22 08:52:07;;;;;;;;;;;;;;;22.89;85.66;101227.84;5204709;28;20292;-58
2022/06/22 08:54:41;;;;;;;;;;;;;;;23.02;82.18;101220.50;5219295;28;19909;-58
2022/06/22 08:57:14;;;;;;;;;;;;;;;23.02;81.52;101226.00;5204219;28;20008;-58
2022/06/22 08:59:44;;;;;;;;;;;;;;;23.12;82.89;101231.94;5247822;22;20152;-62
2022/06/22 09:02:30;;;;;;;;;;;;;;;23.23;80.05;101237.91;5244371;28;19920;-63
2022/06/22 09:05:09;;;;;;;;;;;;;;;23.14;80.43;101228.84;5228278;28;19959;-63
2022/06/22 09:07:49;;;;;;;;;;;;;;;23.13;78.35;101232.75;5229225;28;19912;-62
2022/06/22 09:10:40;;;;;;;;;;;;;;;23.06;78.98;101232.47;5229543;28;19908;-62
2022/06/22 09:13:22;;;;;;;;;;;;;;;23.31;79.58;101219.69;5246126;28;19912;-62
2022/06/22 09:15:58;;;;;;;;;;;;;;;23.48;79.61;101223.16;5228764;28;19966;-62
2022/06/22 09:18:28;;;;;;;;;;;;;;;23.36;79.63;101225.84;5229322;28;19915;-61
2022/06/22 09:21:19;;;;;;;;;;;;;;;23.39;78.53;101219.63;5229070;28;20261;-62
2022/06/22 09:23:56;;;;;;;;;;;;;;;23.34;76.03;101219.84;5228661;28;20114;-63
2022/06/22 09:26:29;;;;;;;;;;;;;;;23.44;75.31;101229.66;5246624;28;19908;-61
2022/06/22 09:29:02;;;;;;;;;;;;;;;23.33;72.97;101225.69;5229070;28;20056;-62
2022/06/22 09:31:47;;;;;;;;;;;;;;;23.08;74.31;101235.72;5245516;28;19908;-62
2022/06/22 09:34:27;;;;;;;;;;;;;;;23.17;74.33;101239.22;5228171;28;20272;-63
2022/06/22 09:37:00;;;;;;;;;;;;;;;23.18;76.11;101235.31;5228531;28;19921;-66
2022/06/22 09:39:37;;;;;;;;;;;;;;;23.33;75.60;101242.22;5228337;28;19915;-63
2022/06/22 09:42:13;;;;;;;;;;;;;;;23.53;77.25;101231.25;5228505;28;20015;-61
2022/06/22 09:44:50;;;;;;;;;;;;;;;23.50;76.49;101223.63;5228159;28;19908;-64
2022/06/22 09:47:32;;;;;;;;;;;;;;;23.79;75.07;101228.31;5228397;28;19912;-63
2022/06/22 09:50:14;;;;;;;;;;;;;;;23.80;74.77;101218.91;5245176;28;19916;-64
2022/06/22 09:52:51;;;;;;;;;;;;;;;23.82;73.96;101218.56;5246994;28;20297;-64
2022/06/22 09:58:18;;;;;;;;;;;;;;;23.99;73.32;101210.13;5246976;28;20484;-64
2022/06/22 10:00:48;;;;;;;;;;;;;;;24.15;73.32;101213.09;5245362;28;19908;-63
2022/06/22 10:03:18;;;;;;;;;;;;;;;24.25;72.74;101203.63;5228037;28;20011;-63
2022/06/22 10:05:58;;;;;;;;;;;;;;;24.33;71.36;101188.91;5228121;28;20014;-63
2022/06/22 10:08:34;;;;;;;;;;;;;;;24.45;71.38;101200.00;5228482;28;20443;-63
2022/06/22 10:11:05;;;;;;;;;;;;;;;24.17;67.91;101206.09;5228241;28;20003;-62
2022/06/22 10:13:35;;;;;;;;;;;;;;;24.02;70.20;101201.19;5226076;28;20371;-63
2022/06/22 10:16:24;;;;;;;;;;;;;;;24.20;69.64;101199.91;5228127;28;20312;-63
2022/06/22 10:18:58;;;;;;;;;;;;;;;24.16;67.74;101196.19;5228331;28;19931;-64
2022/06/22 10:21:28;;;;;;;;;;;;;;;24.18;69.80;101180.09;5228163;28;20261;-63
2022/06/22 10:24:11;;;;;;;;;;;;;;;24.52;68.37;101186.44;5228225;28;19991;-64
2022/06/22 10:26:55;;;;;;;;;;;;;;;24.54;67.18;101184.91;5228672;28;19999;-64
2022/06/22 10:29:34;;;;;;;;;;;;;;;24.55;66.35;101194.81;5228323;28;19915;-64
2022/06/22 10:32:24;;;;;;;;;;;;;;;24.73;67.45;101194.63;5244292;28;20003;-65
2022/06/22 10:35:00;;;;;;;;;;;;;;;24.91;66.58;101185.78;5245368;28;20027;-61
2022/06/22 10:37:39;;;;;;;;;;;;;;;25.03;66.29;101182.25;5228214;28;20391;-62
2022/06/22 10:45:08;;;;;;;;;;;;;;;25.10;65.61;101188.00;5228102;28;20007;-63
2022/06/22 10:46:21;;;;;;;;;;;;;;;24.86;65.69;101177.72;5248687;28;19962;-63
2022/06/22 10:49:04;;;;;;;;;;;;;;;24.77;67.49;101187.28;5249793;28;19915;-63
2022/06/22 10:51:50;;;;;;;;;;;;;;;24.95;66.18;101180.41;5231985;28;19908;-63
2022/06/22 10:54:39;;;;;;;;;;;;;;;25.13;64.90;101186.47;5248385;28;19991;-63
2022/06/22 10:57:24;;;;;;;;;;;;;;;25.42;64.70;101188.19;5248431;28;19920;-65
2022/06/22 11:00:02;;;;;;;;;;;;;;;25.26;65.73;101196.41;5249825;28;19935;-63
2022/06/22 11:02:52;;;;;;;;;;;;;;;25.28;63.69;101191.31;5230421;28;19915;-64
2022/06/22 11:05:51;;;;;;;;;;;;;;;25.20;64.09;101186.72;5249206;28;19908;-64
2022/06/22 11:08:30;;;;;;;;;;;;;;;25.31;64.41;101189.81;5138383;28;20054;-64
2022/06/22 11:11:13;;;;;;;;;;;;;;;25.60;64.06;101184.00;5248056;28;19963;-63
2022/06/22 11:14:02;;;;;;;;;;;;;;;25.74;63.35;101186.41;5247732;28;19973;-63
2022/06/22 11:16:40;;;;;;;;;;;;;;;25.86;62.99;101191.91;5248011;28;19913;-65
2022/06/22 11:19:28;;;;;;;;;;;;;;;25.96;60.83;101191.41;5231299;28;19965;-64
2022/06/22 11:21:59;;;;;;;;;;;;;;;25.74;61.80;101187.22;5247736;28;20293;-61
2022/06/22 11:24:29;;;;;;;;;;;;;;;25.95;61.03;101192.56;5247822;28;19912;-64
2022/06/22 11:33:21;;;;;;;;;;;;;;;26.58;58.33;101182.44;5249371;28;20398;-65
2022/06/22 11:36:10;;;;;;;;;;;;;;;26.36;56.82;101171.16;5247767;28;19916;-63
2022/06/22 11:38:50;;;;;;;;;;;;;;;26.42;57.54;101178.84;5247613;28;20372;-64
2022/06/22 11:41:23;;;;;;;;;;;;;;;26.68;58.73;101177.53;5247354;28;20236;-64
2022/06/22 11:44:32;;;;;;;;;;;;;;;26.49;56.69;101164.41;5239975;28;20473;-63
2022/06/22 11:47:11;;;;;;;;;;;;;;;26.16;58.40;101173.78;5139339;28;19939;-65
2022/06/22 11:49:47;;;;;;;;;;;;;;;26.28;57.74;101175.66;5144065;28;19953;-64
2022/06/22 11:52:20;;;;;;;;;;;;;;;26.36;56.19;101168.41;5209549;28;20363;-62
2022/06/22 11:54:57;;;;;;;;;;;;;;;26.45;54.12;101180.13;5248402;28;19912;-62
2022/06/22 11:57:48;;;;;;;;;;;;;;;26.58;55.18;101156.69;5248616;28;20285;-64
2022/06/22 12:00:33;;;;;;;;;;;;;;;26.83;55.19;101166.47;5229431;28;19935;-64
2022/06/22 12:03:13;;;;;;;;;;;;;;;26.87;54.53;101164.56;5230541;28;19909;-64
2022/06/22 12:05:46;;;;;;;;;;;;;;;26.95;54.87;101162.78;5230159;28;19954;-65
2022/06/22 12:08:39;;;;;;;;;;;;;;;26.88;54.31;101160.63;5230432;28;19909;-64
2022/06/22 12:11:14;;;;;;;;;;;;;;;26.64;54.52;101160.00;5247817;28;19982;-63
2022/06/22 12:17:05;;;;;;;;;;;;;;;26.83;54.89;101157.34;5247867;28;19919;-64
2022/06/22 12:19:55;;;;;;;;;;;;;;;27.10;53.12;101159.22;5230091;28;19909;-63
2022/06/22 12:22:37;;;;;;;;;;;;;;;27.14;52.93;101150.97;5229996;28;19915;-64
2022/06/22 12:25:13;;;;;;;;;;;;;;;27.30;51.89;101151.72;5229654;28;19915;-64
2022/06/22 12:27:50;;;;;;;;;;;;;;;27.42;51.37;101154.38;5229966;28;19908;-67
2022/06/22 12:30:23;;;;;;;;;;;;;;;27.36;54.07;101155.03;5229657;28;19912;-64
2022/06/22 12:32:59;;;;;;;;;;;;;;;27.39;51.22;101155.09;5229665;28;19908;-65
2022/06/22 12:35:55;;;;;;;;;;;;;;;27.43;52.57;101136.56;5229595;28;20412;-64
2022/06/22 12:38:37;;;;;;;;;;;;;;;27.67;51.42;101141.06;5247747;28;19915;-63
2022/06/22 12:41:17;;;;;;;;;;;;;;;27.45;51.19;101142.53;5229651;28;19908;-64
2022/06/22 12:44:08;;;;;;;;;;;;;;;27.27;52.62;101133.03;5229577;28;20429;-65
2022/06/22 12:46:57;;;;;;;;;;;;;;;27.53;51.70;101124.09;5198972;28;19908;-64
2022/06/22 12:49:39;;;;;;;;;;;;;;;27.54;50.74;101122.91;5229460;28;20510;-64
2022/06/22 12:52:16;;;;;;;;;;;;;;;27.26;52.03;101120.34;5229539;28;20023;-63
2022/06/22 12:54:51;;;;;;;;;;;;;;;27.07;50.50;101123.09;5229144;28;19908;-64
2022/06/22 12:57:27;;;;;;;;;;;;;;;27.05;53.02;101122.66;5229262;28;20402;-64
2022/06/22 13:00:10;;;;;;;;;;;;;;;27.33;51.59;101117.72;5229084;28;19973;-63
2022/06/22 13:02:41;;;;;;;;;;;;;;;27.39;50.66;101107.97;5247123;28;19920;-64
2022/06/22 13:05:15;;;;;;;;;;;;;;;27.48;51.46;101100.22;5228968;28;20320;-65
2022/06/22 13:07:57;;;;;;;;;;;;;;;27.90;52.08;101105.84;5228912;28;19909;-64
2022/06/22 13:10:31;;;;;;;;;;;;;;;28.52;51.04;101086.31;5229001;28;19908;-64
2022/06/22 13:13:20;;;;;;;;;;;;;;;28.48;50.28;101079.91;5229342;28;20003;-63
2022/06/22 13:15:53;;;;;;;;;;;;;;;28.51;51.12;101084.72;5228744;28;20406;-64
2022/06/22 13:18:42;;;;;;;;;;;;;;;28.84;49.49;101073.75;5229596;28;19909;-64
2022/06/22 13:21:17;;;;;;;;;;;;;;;28.52;50.10;101076.00;5228857;28;19916;-64
2022/06/22 13:23:54;;;;;;;;;;;;;;;28.58;50.00;101078.47;5229029;28;19908;-65
2022/06/22 13:26:24;;;;;;;;;;;;;;;28.33;49.30;101073.31;5246909;28;19915;-65
2022/06/22 13:29:05;;;;;;;;;;;;;;;28.15;47.53;101075.75;5228700;28;20352;-64
2022/06/22 13:31:38;;;;;;;;;;;;;;;28.25;47.92;101063.25;5247045;28;20372;-65
2022/06/22 13:34:11;;;;;;;;;;;;;;;28.40;47.82;101069.84;5228558;28;19909;-64
2022/06/22 13:36:45;;;;;;;;;;;;;;;28.61;49.83;101059.06;5228919;28;20431;-65
2022/06/22 13:39:27;;;;;;;;;;;;;;;28.92;48.15;101051.59;5228601;28;19909;-65
2022/06/22 13:42:10;;;;;;;;;;;;;;;29.42;48.74;101058.66;5228284;28;19978;-65
2022/06/22 13:44:57;;;;;;;;;;;;;;;30.30;46.78;101044.84;5246233;28;19920;-64
2022/06/22 13:47:28;;;;;;;;;;;;;;;31.47;46.25;101051.13;5228688;28;19908;-65
2022/06/22 13:50:18;;;;;;;;;;;;;;;32.06;44.78;101057.25;5246617;28;20383;-66
2022/06/22 13:52:50;;;;;;;;;;;;;;;32.59;43.34;101053.69;5228796;28;19998;-65
2022/06/22 13:55:21;;;;;;;;;;;;;;;32.67;42.24;101054.47;5228234;28;19920;-65